createdAt,value
2017-12-14T00:00:36.458Z,49.60
2017-12-14T00:01:37.789Z,49.40
2017-12-14T00:02:39.109Z,49.30
2017-12-14T00:03:40.387Z,49.30
2017-12-14T00:04:41.706Z,49.20
2017-12-14T00:05:43.003Z,49.20
2017-12-14T00:06:44.601Z,49.00
2017-12-14T00:07:45.894Z,49.10
2017-12-14T00:08:47.189Z,49.30
2017-12-14T00:09:48.474Z,49.20
2017-12-14T00:10:49.751Z,48.90
2017-12-14T00:11:51.066Z,49.10
2017-12-14T00:12:52.349Z,48.90
2017-12-14T00:13:53.674Z,49.00
2017-12-14T00:14:55.754Z,48.80
2017-12-14T00:15:57.049Z,48.80
2017-12-14T00:16:58.591Z,49.40
2017-12-14T00:17:59.875Z,49.80
2017-12-14T00:19:01.218Z,50.50
2017-12-14T00:20:02.527Z,51.00
2017-12-14T00:21:03.814Z,51.00
2017-12-14T00:22:05.386Z,51.10
2017-12-14T00:23:06.682Z,51.20
2017-12-14T00:24:08.622Z,51.40
2017-12-14T00:25:09.820Z,52.00
2017-12-14T00:26:11.118Z,51.50
2017-12-14T00:27:13.426Z,51.80
2017-12-14T00:28:14.762Z,51.80
2017-12-14T00:29:16.058Z,51.70
2017-12-14T00:30:17.340Z,51.70
2017-12-14T00:31:18.626Z,51.90
2017-12-14T00:32:19.931Z,51.50
2017-12-14T00:33:21.234Z,50.70
2017-12-14T00:34:23.274Z,52.10
2017-12-14T00:35:24.558Z,52.00
2017-12-14T00:36:25.849Z,51.80
2017-12-14T00:37:27.167Z,51.80
2017-12-14T00:38:28.454Z,51.90
2017-12-14T00:39:29.740Z,52.40
2017-12-14T00:40:31.022Z,52.50
2017-12-14T00:41:32.311Z,52.40
2017-12-14T00:42:33.921Z,52.40
2017-12-14T00:43:35.228Z,52.40
2017-12-14T00:44:36.515Z,52.80
2017-12-14T00:45:37.819Z,52.40
2017-12-14T00:46:39.106Z,51.60
2017-12-14T00:47:40.702Z,51.30
2017-12-14T00:48:42.034Z,51.90
2017-12-14T00:49:43.330Z,51.80
2017-12-14T00:50:44.697Z,51.10
2017-12-14T00:51:46.007Z,51.10
2017-12-14T00:52:48.360Z,49.20
2017-12-14T00:53:49.658Z,49.00
2017-12-14T00:54:51.712Z,50.00
2017-12-14T00:55:53.756Z,50.20
2017-12-14T00:56:55.076Z,50.10
2017-12-14T00:57:56.654Z,49.90
2017-12-14T00:58:57.954Z,49.40
2017-12-14T00:59:59.238Z,49.10
2017-12-14T01:01:01.310Z,50.00
2017-12-14T01:02:03.333Z,49.50
2017-12-14T01:03:04.942Z,49.50
2017-12-14T01:04:06.246Z,49.60
2017-12-14T01:05:07.558Z,49.80
2017-12-14T01:06:08.909Z,49.60
2017-12-14T01:07:10.196Z,49.30
2017-12-14T01:08:12.472Z,49.60
2017-12-14T01:09:13.758Z,49.60
2017-12-14T01:10:15.029Z,50.00
2017-12-14T01:11:16.298Z,49.90
2017-12-14T01:12:17.564Z,50.00
2017-12-14T01:13:19.116Z,50.00
2017-12-14T01:14:20.404Z,50.10
2017-12-14T01:15:22.412Z,50.80
2017-12-14T01:16:23.680Z,50.40
2017-12-14T01:17:24.940Z,51.20
2017-12-14T01:18:26.250Z,51.30
2017-12-14T01:19:27.532Z,51.10
2017-12-14T01:20:28.810Z,50.90
2017-12-14T01:21:30.080Z,51.40
2017-12-14T01:22:31.352Z,51.40
2017-12-14T01:23:32.928Z,51.40
2017-12-14T01:24:34.194Z,50.70
2017-12-14T01:25:35.488Z,50.40
2017-12-14T01:26:36.764Z,50.60
2017-12-14T01:27:38.046Z,50.40
2017-12-14T01:28:39.336Z,50.60
2017-12-14T01:29:41.360Z,52.40
2017-12-14T01:30:42.646Z,51.80
2017-12-14T01:31:43.926Z,51.80
2017-12-14T01:32:45.194Z,51.30
2017-12-14T01:33:46.734Z,51.20
2017-12-14T01:34:48.038Z,51.90
2017-12-14T01:35:49.328Z,51.20
2017-12-14T01:36:50.589Z,51.20
2017-12-14T01:37:52.622Z,51.60
2017-12-14T01:38:54.155Z,51.60
2017-12-14T01:39:56.169Z,52.20
2017-12-14T01:40:57.448Z,52.10
2017-12-14T01:41:58.724Z,52.30
2017-12-14T01:42:59.994Z,51.90
2017-12-14T01:44:01.296Z,51.40
2017-12-14T01:45:02.594Z,52.10
2017-12-14T01:46:03.871Z,52.50
2017-12-14T01:47:05.144Z,52.20
2017-12-14T01:48:07.160Z,54.10
2017-12-14T01:49:08.704Z,54.10
2017-12-14T01:50:09.980Z,54.20
2017-12-14T01:51:11.247Z,54.70
2017-12-14T01:52:13.274Z,54.70
2017-12-14T01:53:14.544Z,54.70
2017-12-14T01:54:16.821Z,54.70
2017-12-14T01:55:18.108Z,54.70
2017-12-14T01:56:19.380Z,54.80
2017-12-14T01:57:21.396Z,55.20
2017-12-14T01:58:22.666Z,54.90
2017-12-14T01:59:24.215Z,55.30
2017-12-14T02:00:25.494Z,55.70
2017-12-14T02:01:26.781Z,55.80
2017-12-14T02:02:28.048Z,55.60
2017-12-14T02:03:29.324Z,56.20
2017-12-14T02:04:30.860Z,56.50
2017-12-14T02:05:32.867Z,56.90
2017-12-14T02:06:34.156Z,56.90
2017-12-14T02:07:36.194Z,57.30
2017-12-14T02:08:37.468Z,57.20
2017-12-14T02:09:39.026Z,57.30
2017-12-14T02:10:40.300Z,57.60
2017-12-14T02:11:41.584Z,57.50
2017-12-14T02:12:43.588Z,58.10
2017-12-14T02:13:44.858Z,58.00
2017-12-14T02:14:46.415Z,58.20
2017-12-14T02:15:47.688Z,58.60
2017-12-14T02:16:49.705Z,58.80
2017-12-14T02:17:50.995Z,58.80
2017-12-14T02:18:52.274Z,58.20
2017-12-14T02:19:53.822Z,58.10
2017-12-14T02:20:55.109Z,57.90
2017-12-14T02:21:57.542Z,58.30
2017-12-14T02:22:58.818Z,58.20
2017-12-14T02:24:00.835Z,57.50
2017-12-14T02:25:02.136Z,57.50
2017-12-14T02:26:04.168Z,57.70
2017-12-14T02:27:05.446Z,57.70
2017-12-14T02:28:06.737Z,57.90
2017-12-14T02:29:08.055Z,57.80
2017-12-14T02:30:09.686Z,57.40
2017-12-14T02:31:10.948Z,57.40
2017-12-14T02:32:12.206Z,57.80
2017-12-14T02:33:14.226Z,57.40
2017-12-14T02:34:15.523Z,57.40
2017-12-14T02:35:17.068Z,57.40
2017-12-14T02:36:18.352Z,57.40
2017-12-14T02:37:20.351Z,57.20
2017-12-14T02:38:21.626Z,57.20
2017-12-14T02:39:22.896Z,56.80
2017-12-14T02:40:25.180Z,56.80
2017-12-14T02:41:26.454Z,56.80
2017-12-14T02:42:28.500Z,56.90
2017-12-14T02:43:29.777Z,57.60
2017-12-14T02:44:31.053Z,56.80
2017-12-14T02:45:32.363Z,56.80
2017-12-14T02:46:33.628Z,56.60
2017-12-14T02:47:35.634Z,56.50
2017-12-14T02:48:36.912Z,56.50
2017-12-14T02:49:38.172Z,56.40
2017-12-14T02:50:40.550Z,56.20
2017-12-14T02:51:41.808Z,56.20
2017-12-14T02:52:43.093Z,56.10
2017-12-14T02:53:44.378Z,56.20
2017-12-14T02:54:45.658Z,56.30
2017-12-14T02:55:47.274Z,56.60
2017-12-14T02:56:48.534Z,56.70
2017-12-14T02:57:49.812Z,56.50
2017-12-14T02:58:51.084Z,56.30
2017-12-14T02:59:53.100Z,55.90
2017-12-14T03:00:54.644Z,55.80
2017-12-14T03:01:55.911Z,55.70
2017-12-14T03:02:57.188Z,55.60
2017-12-14T03:03:58.513Z,55.40
2017-12-14T03:05:00.572Z,55.00
2017-12-14T03:06:02.651Z,55.00
2017-12-14T03:07:03.953Z,55.00
2017-12-14T03:08:05.228Z,55.10
2017-12-14T03:09:06.519Z,55.30
2017-12-14T03:10:07.830Z,55.00
2017-12-14T03:11:09.471Z,55.10
2017-12-14T03:12:10.743Z,55.30
2017-12-14T03:13:12.017Z,55.20
2017-12-14T03:14:14.044Z,54.20
2017-12-14T03:15:15.320Z,54.10
2017-12-14T03:16:16.906Z,54.20
2017-12-14T03:17:18.180Z,54.00
2017-12-14T03:18:19.517Z,54.20
2017-12-14T03:19:20.786Z,53.90
2017-12-14T03:20:22.068Z,53.60
2017-12-14T03:21:23.830Z,53.80
2017-12-14T03:22:25.106Z,53.40
2017-12-14T03:23:26.368Z,53.50
2017-12-14T03:24:27.667Z,53.60
2017-12-14T03:25:28.952Z,53.50
2017-12-14T03:26:30.511Z,53.80
2017-12-14T03:27:31.780Z,53.80
2017-12-14T03:28:33.063Z,53.50
2017-12-14T03:29:34.348Z,53.70
2017-12-14T03:30:36.361Z,53.70
2017-12-14T03:31:37.900Z,53.70
2017-12-14T03:32:39.180Z,54.00
2017-12-14T03:33:40.463Z,54.80
2017-12-14T03:34:41.724Z,53.70
2017-12-14T03:35:43.002Z,53.40
2017-12-14T03:36:44.582Z,53.90
2017-12-14T03:37:45.856Z,53.40
2017-12-14T03:38:47.134Z,53.30
2017-12-14T03:39:48.403Z,53.40
2017-12-14T03:40:50.394Z,53.60
2017-12-14T03:41:51.928Z,53.60
2017-12-14T03:42:53.195Z,53.90
2017-12-14T03:43:54.488Z,53.90
2017-12-14T03:44:56.496Z,54.80
2017-12-14T03:45:57.777Z,54.70
2017-12-14T03:46:59.449Z,54.90
2017-12-14T03:48:01.512Z,56.10
2017-12-14T03:49:03.545Z,55.90
2017-12-14T03:50:04.860Z,55.90
2017-12-14T03:51:06.148Z,56.20
2017-12-14T03:52:08.460Z,56.80
2017-12-14T03:53:09.769Z,56.80
2017-12-14T03:54:11.814Z,58.00
2017-12-14T03:55:13.812Z,58.20
2017-12-14T03:56:15.144Z,58.20
2017-12-14T03:57:16.713Z,57.90
2017-12-14T03:58:17.994Z,57.70
2017-12-14T03:59:19.274Z,57.60
2017-12-14T04:00:20.540Z,57.70
2017-12-14T04:01:21.826Z,58.50
2017-12-14T04:02:23.124Z,58.90
2017-12-14T04:03:24.418Z,59.70
2017-12-14T04:04:26.424Z,59.00
2017-12-14T04:05:27.708Z,58.90
2017-12-14T04:06:28.997Z,58.50
2017-12-14T04:07:30.628Z,57.70
2017-12-14T04:08:31.928Z,56.80
2017-12-14T04:09:33.960Z,56.80
2017-12-14T04:10:35.274Z,56.80
2017-12-14T04:11:36.576Z,56.40
2017-12-14T04:12:38.154Z,55.70
2017-12-14T04:13:39.445Z,54.80
2017-12-14T04:14:40.734Z,54.70
2017-12-14T04:15:42.781Z,56.00
2017-12-14T04:16:44.072Z,56.00
2017-12-14T04:17:45.696Z,56.30
2017-12-14T04:18:47.748Z,57.00
2017-12-14T04:19:49.792Z,57.30
2017-12-14T04:20:51.093Z,57.20
2017-12-14T04:21:52.403Z,57.40
2017-12-14T04:22:54.764Z,56.80
2017-12-14T04:23:56.813Z,56.90
2017-12-14T04:24:58.104Z,56.80
2017-12-14T04:25:59.404Z,56.40
2017-12-14T04:27:01.444Z,56.60
2017-12-14T04:28:03.032Z,56.60
2017-12-14T04:29:04.336Z,56.70
2017-12-14T04:30:05.636Z,56.20
2017-12-14T04:31:06.944Z,56.40
2017-12-14T04:32:08.996Z,57.30
2017-12-14T04:33:10.674Z,57.20
2017-12-14T04:34:11.992Z,57.40
2017-12-14T04:35:14.028Z,58.40
2017-12-14T04:36:15.325Z,58.40
2017-12-14T04:37:16.621Z,58.50
2017-12-14T04:38:18.206Z,58.70
2017-12-14T04:39:19.509Z,59.00
2017-12-14T04:40:20.801Z,59.00
2017-12-14T04:41:22.125Z,59.10
2017-12-14T04:42:23.432Z,59.20
2017-12-14T04:43:25.032Z,59.20
2017-12-14T04:44:26.350Z,59.40
2017-12-14T04:45:28.400Z,59.70
2017-12-14T04:46:29.696Z,59.50
2017-12-14T04:47:31.000Z,59.40
2017-12-14T04:48:33.377Z,58.90
2017-12-14T04:49:35.437Z,58.80
2017-12-14T04:50:37.473Z,58.50
2017-12-14T04:51:38.769Z,58.40
2017-12-14T04:52:40.061Z,58.10
2017-12-14T04:53:41.634Z,58.10
2017-12-14T04:54:42.925Z,57.50
2017-12-14T04:55:44.245Z,57.00
2017-12-14T04:56:45.560Z,57.60
2017-12-14T04:57:46.883Z,57.40
2017-12-14T04:58:49.209Z,57.30
2017-12-14T04:59:50.497Z,57.30
2017-12-14T05:00:52.537Z,56.00
2017-12-14T05:01:53.849Z,55.30
2017-12-14T05:02:55.157Z,55.00
2017-12-14T05:03:57.205Z,55.20
2017-12-14T05:04:59.241Z,56.10
2017-12-14T05:06:00.550Z,56.10
2017-12-14T05:07:01.840Z,56.40
2017-12-14T05:08:03.160Z,56.80
2017-12-14T05:09:04.462Z,57.00
2017-12-14T05:10:05.765Z,57.20
2017-12-14T05:11:07.072Z,57.50
2017-12-14T05:12:08.399Z,57.50
2017-12-14T05:13:09.697Z,57.50
2017-12-14T05:14:11.377Z,57.70
2017-12-14T05:15:13.049Z,58.00
2017-12-14T05:16:14.349Z,58.10
2017-12-14T05:17:16.409Z,58.70
2017-12-14T05:18:18.449Z,59.60
2017-12-14T05:19:20.043Z,59.00
2017-12-14T05:20:21.349Z,58.90
2017-12-14T05:21:22.648Z,58.80
2017-12-14T05:22:23.953Z,59.20
2017-12-14T05:23:25.992Z,58.50
2017-12-14T05:24:27.309Z,58.50
2017-12-14T05:25:28.615Z,58.40
2017-12-14T05:26:29.905Z,58.40
2017-12-14T05:27:31.221Z,58.30
2017-12-14T05:28:32.532Z,58.50
2017-12-14T05:29:34.605Z,58.40
2017-12-14T05:30:35.909Z,58.30
2017-12-14T05:31:37.195Z,58.40
2017-12-14T05:32:38.495Z,58.40
2017-12-14T05:33:39.797Z,58.40
2017-12-14T05:34:41.381Z,58.30
2017-12-14T05:35:42.674Z,58.10
2017-12-14T05:36:43.991Z,57.10
2017-12-14T05:37:46.050Z,57.50
2017-12-14T05:38:48.085Z,57.50
2017-12-14T05:39:49.435Z,57.40
2017-12-14T05:40:50.753Z,57.30
2017-12-14T05:41:52.053Z,57.10
2017-12-14T05:42:53.374Z,56.70
2017-12-14T05:43:54.673Z,56.40
2017-12-14T05:44:56.293Z,56.30
2017-12-14T05:45:57.591Z,56.00
2017-12-14T05:46:58.901Z,56.00
2017-12-14T05:48:00.213Z,56.20
2017-12-14T05:49:02.257Z,56.40
2017-12-14T05:50:03.859Z,56.30
2017-12-14T05:51:05.161Z,56.50
2017-12-14T05:52:07.193Z,56.60
2017-12-14T05:53:08.521Z,56.60
2017-12-14T05:54:09.834Z,57.20
2017-12-14T05:55:11.169Z,57.50
2017-12-14T05:56:12.469Z,57.90
2017-12-14T05:57:13.788Z,58.10
2017-12-14T05:58:15.093Z,58.40
2017-12-14T05:59:16.401Z,58.90
2017-12-14T06:00:17.925Z,59.70
2017-12-14T06:01:19.233Z,59.50
2017-12-14T06:02:20.545Z,59.50
2017-12-14T06:03:22.594Z,59.30
2017-12-14T06:04:23.897Z,59.30
2017-12-14T06:05:25.513Z,59.00
2017-12-14T06:06:27.561Z,58.00
2017-12-14T06:07:29.613Z,58.00
2017-12-14T06:08:30.906Z,57.90
2017-12-14T06:09:32.219Z,58.10
2017-12-14T06:10:34.489Z,58.20
2017-12-14T06:11:35.807Z,58.20
2017-12-14T06:12:37.135Z,58.10
2017-12-14T06:13:38.437Z,58.10
2017-12-14T06:14:39.757Z,58.20
2017-12-14T06:15:41.085Z,58.10
2017-12-14T06:16:43.141Z,58.00
2017-12-14T06:17:45.200Z,57.90
2017-12-14T06:18:46.497Z,57.90
2017-12-14T06:19:47.801Z,57.90
2017-12-14T06:20:49.867Z,57.90
2017-12-14T06:21:51.187Z,57.90
2017-12-14T06:22:52.485Z,57.80
2017-12-14T06:23:53.801Z,57.70
2017-12-14T06:24:55.122Z,57.60
2017-12-14T06:25:57.209Z,57.90
2017-12-14T06:26:58.513Z,57.80
2017-12-14T06:27:59.825Z,58.00
2017-12-14T06:29:01.877Z,58.20
2017-12-14T06:30:03.181Z,58.20
2017-12-14T06:31:05.531Z,58.70
2017-12-14T06:32:07.597Z,59.30
2017-12-14T06:33:09.645Z,59.80
2017-12-14T06:34:10.968Z,59.20
2017-12-14T06:35:12.277Z,59.50
2017-12-14T06:36:13.608Z,59.40
2017-12-14T06:37:14.937Z,59.20
2017-12-14T06:38:16.983Z,58.10
2017-12-14T06:39:18.447Z,58.00
2017-12-14T06:40:19.845Z,58.40
2017-12-14T06:41:21.538Z,58.40
2017-12-14T06:42:23.020Z,58.40
2017-12-14T06:43:24.552Z,58.30
2017-12-14T06:44:25.979Z,58.30
2017-12-14T06:45:27.357Z,58.40
2017-12-14T06:46:29.043Z,58.30
2017-12-14T06:47:30.441Z,58.10
2017-12-14T06:48:31.787Z,58.20
2017-12-14T06:49:33.072Z,58.30
2017-12-14T06:50:34.380Z,58.10
2017-12-14T06:51:36.017Z,57.90
2017-12-14T06:52:37.325Z,57.40
2017-12-14T06:53:38.637Z,57.50
2017-12-14T06:54:39.949Z,57.50
2017-12-14T06:55:41.237Z,57.20
2017-12-14T06:56:42.561Z,57.30
2017-12-14T06:57:43.893Z,57.30
2017-12-14T06:58:45.192Z,57.30
2017-12-14T06:59:47.256Z,57.30
2017-12-14T07:00:49.305Z,57.30
2017-12-14T07:01:50.633Z,57.30
2017-12-14T07:03:04.152Z,57.30
2017-12-14T07:04:05.458Z,57.40
2017-12-14T07:05:06.756Z,57.50
2017-12-14T07:06:08.049Z,57.50
2017-12-14T07:07:09.391Z,57.70
2017-12-14T07:08:10.688Z,57.80
2017-12-14T07:09:11.983Z,57.70
2017-12-14T07:10:13.285Z,57.60
2017-12-14T07:11:15.329Z,57.70
2017-12-14T07:12:16.921Z,57.80
2017-12-14T07:13:18.237Z,57.80
2017-12-14T07:14:20.281Z,57.80
2017-12-14T07:15:21.597Z,57.80
2017-12-14T07:16:22.902Z,57.80
2017-12-14T07:17:24.236Z,57.60
2017-12-14T07:18:26.301Z,57.60
2017-12-14T07:19:28.369Z,57.80
2017-12-14T07:20:29.673Z,57.80
2017-12-14T07:21:30.996Z,57.70
2017-12-14T07:22:33.315Z,57.70
2017-12-14T07:23:35.367Z,57.50
2017-12-14T07:24:37.396Z,57.50
2017-12-14T07:25:38.726Z,57.40
2017-12-14T07:26:40.045Z,57.30
2017-12-14T07:27:41.397Z,57.20
2017-12-14T07:28:42.692Z,57.40
2017-12-14T07:29:44.739Z,57.50
2017-12-14T07:30:46.057Z,57.50
2017-12-14T07:31:48.085Z,57.50
2017-12-14T07:32:49.402Z,57.50
2017-12-14T07:33:50.692Z,57.30
2017-12-14T07:34:52.745Z,56.60
2017-12-14T07:35:54.073Z,56.90
2017-12-14T07:36:55.386Z,56.90
2017-12-14T07:37:57.721Z,56.30
2017-12-14T07:38:59.013Z,56.30
2017-12-14T07:40:00.334Z,56.20
2017-12-14T07:41:02.393Z,56.40
2017-12-14T07:42:03.701Z,56.30
2017-12-14T07:43:08.880Z,56.00
2017-12-14T07:44:29.706Z,55.80
2017-12-14T07:46:00.821Z,55.80
2017-12-14T07:47:15.230Z,55.60
2017-12-14T07:48:17.574Z,55.50
2017-12-14T07:49:20.817Z,56.10
2017-12-14T07:50:22.892Z,54.60
2017-12-14T07:51:24.949Z,54.80
2017-12-14T07:52:27.017Z,54.20
2017-12-14T07:53:29.092Z,54.40
2017-12-14T07:54:30.406Z,54.30
2017-12-14T07:55:32.477Z,52.50
2017-12-14T07:56:34.517Z,53.10
2017-12-14T07:57:35.824Z,53.10
2017-12-14T07:58:37.195Z,53.40
2017-12-14T07:59:38.501Z,54.10
2017-12-14T08:00:39.819Z,55.40
2017-12-14T08:01:41.880Z,56.70
2017-12-14T08:02:43.957Z,57.20
2017-12-14T08:03:45.300Z,57.20
2017-12-14T08:04:46.639Z,57.80
2017-12-14T08:05:47.960Z,58.40
2017-12-14T08:06:50.021Z,58.80
2017-12-14T08:07:52.114Z,59.00
2017-12-14T08:08:53.744Z,59.00
2017-12-14T08:09:55.809Z,59.20
2017-12-14T08:10:57.865Z,59.50
2017-12-14T08:11:59.933Z,60.10
2017-12-14T08:13:01.244Z,60.00
2017-12-14T08:14:02.584Z,60.60
2017-12-14T08:15:03.905Z,61.50
2017-12-14T08:16:05.965Z,62.10
2017-12-14T08:17:08.025Z,62.60
2017-12-14T08:18:09.357Z,63.30
2017-12-14T08:19:10.693Z,62.70
2017-12-14T08:20:12.017Z,62.90
2017-12-14T08:21:13.352Z,62.70
2017-12-14T08:22:14.668Z,62.70
2017-12-14T08:23:15.985Z,62.60
2017-12-14T08:24:18.328Z,62.60
2017-12-14T08:25:19.673Z,62.30
2017-12-14T08:26:20.992Z,62.60
2017-12-14T08:27:22.304Z,62.40
2017-12-14T08:28:23.613Z,63.10
2017-12-14T08:29:24.949Z,63.30
2017-12-14T08:30:26.278Z,63.10
2017-12-14T08:31:27.588Z,62.30
2017-12-14T08:32:29.645Z,62.50
2017-12-14T08:33:30.960Z,62.50
2017-12-14T08:34:32.285Z,62.20
2017-12-14T08:35:33.629Z,62.40
2017-12-14T08:36:34.961Z,62.20
2017-12-14T08:37:36.284Z,62.00
2017-12-14T08:38:37.607Z,61.80
2017-12-14T08:39:39.961Z,61.10
2017-12-14T08:40:41.305Z,61.10
2017-12-14T08:41:42.608Z,60.80
2017-12-14T08:42:43.917Z,60.70
2017-12-14T08:43:45.988Z,60.10
2017-12-14T08:44:47.329Z,60.10
2017-12-14T08:45:48.637Z,59.90
2017-12-14T08:46:49.972Z,59.70
2017-12-14T08:47:51.280Z,59.60
2017-12-14T08:48:52.597Z,58.80
2017-12-14T08:49:54.215Z,58.70
2017-12-14T08:50:55.542Z,58.20
2017-12-14T08:51:57.601Z,58.30
2017-12-14T08:52:58.932Z,58.00
2017-12-14T08:54:00.257Z,58.20
2017-12-14T08:55:01.600Z,58.10
2017-12-14T08:56:02.905Z,57.90
2017-12-14T08:57:04.992Z,57.70
2017-12-14T08:58:06.309Z,57.70
2017-12-14T08:59:08.425Z,57.00
2017-12-14T09:00:10.033Z,57.00
2017-12-14T09:01:12.122Z,56.20
2017-12-14T09:02:13.445Z,56.20
2017-12-14T09:03:14.791Z,55.90
2017-12-14T09:04:16.096Z,55.40
2017-12-14T09:05:17.775Z,55.20
2017-12-14T09:06:19.833Z,54.30
2017-12-14T09:07:21.896Z,54.20
2017-12-14T09:08:23.971Z,54.50
2017-12-14T09:09:25.289Z,54.40
2017-12-14T09:10:27.365Z,54.70
2017-12-14T09:11:28.673Z,54.70
2017-12-14T09:12:30.005Z,54.10
2017-12-14T09:13:31.340Z,54.30
2017-12-14T09:14:32.668Z,54.70
2017-12-14T09:15:34.025Z,54.80
2017-12-14T09:16:36.105Z,54.70
2017-12-14T09:17:37.420Z,54.70
2017-12-14T09:18:38.806Z,55.20
2017-12-14T09:19:40.197Z,56.30
2017-12-14T09:20:41.521Z,56.70
2017-12-14T09:21:42.849Z,57.00
2017-12-14T09:22:44.909Z,57.20
2017-12-14T09:23:46.975Z,56.30
2017-12-14T09:24:49.037Z,56.10
2017-12-14T09:25:51.128Z,56.20
2017-12-14T09:26:52.469Z,56.10
2017-12-14T09:27:53.781Z,55.70
2017-12-14T09:28:55.848Z,55.40
2017-12-14T09:29:57.929Z,55.80
2017-12-14T09:30:59.277Z,55.80
2017-12-14T09:32:00.594Z,55.80
2017-12-14T09:33:01.929Z,55.60
2017-12-14T09:34:03.977Z,55.80
2017-12-14T09:35:05.309Z,55.70
2017-12-14T09:36:06.936Z,56.40
2017-12-14T09:37:08.233Z,55.90
2017-12-14T09:38:10.309Z,56.40
2017-12-14T09:39:11.620Z,55.80
2017-12-14T09:40:12.972Z,55.60
2017-12-14T09:41:15.344Z,55.70
2017-12-14T09:42:17.398Z,55.50
2017-12-14T09:43:19.449Z,55.70
2017-12-14T09:44:21.565Z,55.80
2017-12-14T09:45:22.901Z,55.80
2017-12-14T09:46:24.232Z,56.20
2017-12-14T09:47:25.554Z,56.40
2017-12-14T09:48:27.648Z,56.50
2017-12-14T09:49:28.981Z,56.50
2017-12-14T09:50:30.312Z,56.60
2017-12-14T09:51:31.956Z,56.60
2017-12-14T09:52:34.011Z,57.00
2017-12-14T09:53:36.080Z,57.00
2017-12-14T09:54:38.165Z,57.20
2017-12-14T09:55:39.488Z,57.20
2017-12-14T09:56:41.104Z,57.20
2017-12-14T09:57:42.413Z,57.20
2017-12-14T09:58:43.781Z,57.20
2017-12-14T09:59:45.139Z,57.30
2017-12-14T10:00:46.449Z,57.00
2017-12-14T10:01:47.793Z,57.20
2017-12-14T10:02:49.112Z,57.10
2017-12-14T10:03:50.428Z,57.10
2017-12-14T10:04:52.487Z,57.30
2017-12-14T10:05:54.547Z,57.60
2017-12-14T10:06:56.925Z,57.50
2017-12-14T10:07:58.999Z,57.20
2017-12-14T10:09:00.313Z,57.20
2017-12-14T10:10:02.410Z,57.70
2017-12-14T10:11:04.445Z,57.70
2017-12-14T10:12:06.534Z,57.70
2017-12-14T10:13:07.869Z,57.60
2017-12-14T10:14:09.180Z,57.70
2017-12-14T10:15:11.256Z,56.70
2017-12-14T10:16:12.570Z,56.60
2017-12-14T10:17:13.929Z,56.10
2017-12-14T10:18:15.997Z,55.90
2017-12-14T10:19:18.057Z,55.40
2017-12-14T10:20:20.124Z,55.10
2017-12-14T10:21:22.201Z,54.60
2017-12-14T10:22:23.833Z,54.60
2017-12-14T10:23:25.890Z,55.20
2017-12-14T10:24:27.933Z,55.30
2017-12-14T10:25:29.260Z,55.20
2017-12-14T10:26:30.585Z,55.60
2017-12-14T10:27:31.925Z,55.10
2017-12-14T10:28:33.237Z,54.90
2017-12-14T10:29:34.545Z,54.70
2017-12-14T10:30:35.865Z,54.80
2017-12-14T10:31:37.185Z,54.30
2017-12-14T10:32:38.529Z,54.40
2017-12-14T10:33:39.856Z,54.20
2017-12-14T10:34:41.173Z,53.90
2017-12-14T10:35:43.221Z,54.40
2017-12-14T10:36:44.529Z,54.30
2017-12-14T10:37:45.861Z,54.30
2017-12-14T10:38:47.193Z,54.20
2017-12-14T10:39:48.507Z,53.90
2017-12-14T10:40:50.589Z,53.70
2017-12-14T10:41:51.916Z,53.60
2017-12-14T10:42:53.999Z,53.90
2017-12-14T10:43:55.348Z,53.90
2017-12-14T10:44:56.671Z,53.60
2017-12-14T10:45:58.749Z,52.90
2017-12-14T10:47:00.092Z,52.90
2017-12-14T10:48:01.441Z,53.00
2017-12-14T10:49:02.760Z,53.10
2017-12-14T10:50:04.811Z,52.60
2017-12-14T10:51:06.902Z,52.60
2017-12-14T10:52:08.233Z,52.60
2017-12-14T10:53:09.585Z,52.60
2017-12-14T10:54:10.897Z,52.00
2017-12-14T10:55:12.936Z,52.40
2017-12-14T10:56:14.237Z,52.20
2017-12-14T10:57:15.537Z,52.50
2017-12-14T10:58:16.896Z,52.70
2017-12-14T10:59:18.970Z,52.60
2017-12-14T11:00:20.343Z,52.50
2017-12-14T11:01:27.792Z,51.90
2017-12-14T11:02:29.849Z,52.10
2017-12-14T11:03:31.949Z,51.20
2017-12-14T11:04:33.269Z,51.20
2017-12-14T11:05:34.646Z,51.90
2017-12-14T11:06:35.970Z,51.90
2017-12-14T11:07:37.320Z,51.60
2017-12-14T11:08:38.665Z,51.60
2017-12-14T11:09:39.969Z,51.80
2017-12-14T11:10:42.037Z,51.50
2017-12-14T11:11:44.072Z,51.90
2017-12-14T11:12:45.406Z,51.90
2017-12-14T11:13:46.770Z,51.90
2017-12-14T11:14:48.834Z,51.00
2017-12-14T11:15:50.901Z,50.70
2017-12-14T11:16:52.969Z,51.20
2017-12-14T11:17:54.296Z,51.20
2017-12-14T11:18:56.621Z,50.70
2017-12-14T11:19:57.966Z,50.60
2017-12-14T11:20:59.297Z,50.90
2017-12-14T11:22:00.639Z,50.80
2017-12-14T11:23:01.967Z,51.20
2017-12-14T11:24:03.335Z,51.20
2017-12-14T11:25:04.683Z,51.10
2017-12-14T11:26:06.032Z,51.00
2017-12-14T11:27:07.364Z,49.80
2017-12-14T11:28:08.699Z,49.90
2017-12-14T11:29:10.063Z,49.80
2017-12-14T11:30:11.394Z,49.70
2017-12-14T11:31:12.731Z,49.70
2017-12-14T11:32:14.071Z,50.10
2017-12-14T11:33:15.418Z,50.10
2017-12-14T11:34:16.775Z,50.00
2017-12-14T11:35:18.099Z,49.90
2017-12-14T11:36:19.439Z,49.60
2017-12-14T11:37:20.791Z,49.90
2017-12-14T11:38:22.138Z,49.90
2017-12-14T11:39:23.514Z,49.00
2017-12-14T11:40:24.846Z,49.40
2017-12-14T11:41:26.175Z,49.70
2017-12-14T11:42:27.518Z,49.60
2017-12-14T11:43:29.601Z,49.80
2017-12-14T11:44:31.127Z,49.80
2017-12-14T11:45:32.471Z,49.60
2017-12-14T11:46:33.795Z,49.60
2017-12-14T11:47:35.151Z,49.20
2017-12-14T11:48:36.493Z,49.20
2017-12-14T11:49:37.858Z,49.00
2017-12-14T11:50:39.187Z,48.80
2017-12-14T11:51:40.513Z,48.80
2017-12-14T11:52:41.866Z,48.50
2017-12-14T11:53:43.227Z,48.80
2017-12-14T11:54:44.580Z,49.00
2017-12-14T11:55:45.931Z,49.10
2017-12-14T11:56:47.302Z,49.40
2017-12-14T11:57:49.423Z,49.10
2017-12-14T11:58:50.763Z,49.00
2017-12-14T11:59:52.483Z,49.00
2017-12-14T12:00:53.823Z,49.20
2017-12-14T12:01:55.937Z,48.60
2017-12-14T12:02:57.249Z,48.00
2017-12-14T12:03:58.571Z,47.00
2017-12-14T12:04:59.951Z,47.60
2017-12-14T12:06:01.291Z,47.70
2017-12-14T12:07:02.634Z,48.20
2017-12-14T12:08:03.988Z,48.30
2017-12-14T12:09:05.335Z,47.70
2017-12-14T12:10:06.695Z,46.90
2017-12-14T12:11:08.039Z,47.00
2017-12-14T12:12:09.378Z,47.60
2017-12-14T12:13:10.735Z,47.30
2017-12-14T12:14:12.821Z,47.20
2017-12-14T12:15:14.617Z,47.10
2017-12-14T12:16:15.971Z,47.30
2017-12-14T12:17:17.323Z,46.90
2017-12-14T12:18:18.659Z,46.50
2017-12-14T12:19:20.026Z,46.80
2017-12-14T12:20:22.478Z,46.60
2017-12-14T12:21:24.595Z,46.60
2017-12-14T12:22:25.943Z,46.50
2017-12-14T12:23:27.295Z,46.50
2017-12-14T12:24:28.674Z,46.30
2017-12-14T12:25:30.039Z,46.30
2017-12-14T12:26:32.107Z,46.10
2017-12-14T12:27:34.187Z,46.10
2017-12-14T12:28:35.523Z,46.10
2017-12-14T12:29:36.873Z,45.80
2017-12-14T12:30:38.251Z,45.50
2017-12-14T12:31:40.335Z,45.60
2017-12-14T12:32:41.671Z,45.60
2017-12-14T12:33:43.015Z,46.00
2017-12-14T12:34:44.355Z,46.00
2017-12-14T12:35:45.727Z,46.00
2017-12-14T12:36:47.071Z,45.80
2017-12-14T12:37:49.148Z,45.90
2017-12-14T12:38:50.475Z,45.90
2017-12-14T12:39:52.547Z,43.40
2017-12-14T12:40:53.907Z,43.30
2017-12-14T12:41:55.259Z,42.50
2017-12-14T12:42:56.611Z,43.30
2017-12-14T12:43:57.951Z,44.80
2017-12-14T12:44:59.283Z,44.40
2017-12-14T12:46:00.647Z,44.40
2017-12-14T12:47:01.987Z,44.40
2017-12-14T12:48:03.335Z,43.20
2017-12-14T12:49:04.676Z,42.30
2017-12-14T12:50:06.763Z,41.50
2017-12-14T12:51:08.472Z,41.50
2017-12-14T12:52:09.835Z,42.00
2017-12-14T12:53:11.163Z,42.40
2017-12-14T12:54:12.527Z,42.70
2017-12-14T12:55:13.855Z,41.70
2017-12-14T12:56:15.219Z,42.10
2017-12-14T12:57:16.554Z,42.10
2017-12-14T12:58:17.907Z,42.70
2017-12-14T12:59:19.262Z,42.70
2017-12-14T13:00:20.623Z,43.40
2017-12-14T13:01:23.044Z,43.90
2017-12-14T13:02:24.373Z,43.70
2017-12-14T13:03:25.703Z,44.10
2017-12-14T13:04:27.043Z,44.30
2017-12-14T13:06:53.994Z,43.90
2017-12-14T13:07:56.093Z,44.50
2017-12-14T13:08:57.427Z,44.40
2017-12-14T13:09:58.783Z,44.90
2017-12-14T13:11:00.153Z,44.90
2017-12-14T13:12:01.508Z,45.10
2017-12-14T13:13:02.856Z,44.90
2017-12-14T13:14:04.195Z,45.20
2017-12-14T13:15:05.519Z,45.70